createdAt,value
2019-04-06T00:00:08.898Z,23.23
2019-04-06T00:02:39.952Z,22.98
2019-04-06T00:05:09.459Z,23.52
2019-04-06T00:07:39.304Z,23.62
2019-04-06T00:10:08.725Z,25.52
2019-04-06T00:12:37.958Z,24.50
2019-04-06T00:15:08.076Z,24.95
2019-04-06T00:17:37.770Z,23.27
2019-04-06T00:20:09.742Z,24.97
2019-04-06T00:22:39.004Z,24.35
2019-04-06T00:25:08.450Z,25.77
2019-04-06T00:27:37.681Z,24.50
2019-04-06T00:30:08.247Z,25.10
2019-04-06T00:35:13.647Z,23.38
2019-04-06T00:37:42.914Z,24.72
2019-04-06T00:40:12.345Z,24.80
2019-04-06T00:42:41.899Z,24.00
2019-04-06T00:45:11.412Z,24.80
2019-04-06T00:47:41.046Z,25.77
2019-04-06T00:50:10.344Z,23.83
2019-04-06T00:52:39.930Z,23.47
2019-04-06T00:55:09.622Z,26.07
2019-04-06T00:57:39.247Z,24.30
2019-04-06T01:00:08.891Z,24.20
2019-04-06T01:02:38.579Z,23.07
2019-04-06T01:05:07.911Z,24.70
2019-04-06T01:07:37.237Z,24.60
2019-04-06T01:10:07.468Z,23.52
2019-04-06T01:12:37.147Z,24.27
2019-04-06T01:15:07.039Z,24.87
2019-04-06T01:17:36.268Z,24.15
2019-04-06T01:20:06.609Z,24.27
2019-04-06T01:22:35.863Z,24.00
2019-04-06T01:25:07.547Z,24.95
2019-04-06T01:27:37.124Z,25.60
2019-04-06T01:30:07.816Z,26.95
2019-04-06T01:35:06.681Z,25.25
2019-04-06T01:37:35.999Z,27.48
2019-04-06T01:40:06.793Z,25.48
2019-04-06T01:42:36.143Z,26.55
2019-04-06T01:45:07.225Z,25.97
2019-04-06T01:47:36.474Z,26.25
2019-04-06T01:50:06.273Z,28.02
2019-04-06T01:52:35.897Z,28.05
2019-04-06T01:55:06.134Z,26.93
2019-04-06T01:57:35.440Z,26.25
2019-04-06T02:00:08.751Z,27.95
2019-04-06T02:02:39.779Z,26.70
2019-04-06T02:05:09.367Z,26.87
2019-04-06T02:07:39.226Z,27.93
2019-04-06T02:10:08.574Z,27.37
2019-04-06T02:12:37.841Z,25.35
2019-04-06T02:15:07.919Z,27.75
2019-04-06T02:17:37.448Z,27.73
2019-04-06T02:20:07.166Z,26.80
2019-04-06T02:22:37.211Z,26.57
2019-04-06T02:25:09.471Z,27.65
2019-04-06T02:27:39.368Z,26.35
2019-04-06T02:30:16.105Z,27.98
2019-04-06T02:32:47.077Z,27.20
2019-04-06T02:35:21.360Z,26.48
2019-04-06T02:37:52.519Z,27.15
2019-04-06T02:40:26.323Z,28.15
2019-04-06T02:43:00.215Z,26.70
2019-04-06T02:45:29.510Z,28.75
2019-04-06T02:47:58.758Z,27.05
2019-04-06T02:50:28.041Z,27.00
2019-04-06T02:52:57.234Z,27.82
2019-04-06T02:55:26.456Z,27.05
2019-04-06T02:57:55.762Z,28.50
2019-04-06T03:00:24.968Z,30.08
2019-04-06T03:02:54.210Z,29.60
2019-04-06T03:05:23.464Z,28.20
2019-04-06T03:07:52.653Z,28.83
2019-04-06T03:10:21.859Z,28.55
2019-04-06T03:12:51.114Z,29.50
2019-04-06T03:15:20.342Z,30.25
2019-04-06T03:17:49.805Z,31.57
2019-04-06T03:20:19.208Z,30.25
2019-04-06T03:22:48.616Z,30.45
2019-04-06T03:25:17.863Z,29.87
2019-04-06T03:27:47.057Z,30.82
2019-04-06T03:30:16.590Z,29.95
2019-04-06T03:32:45.830Z,30.40
2019-04-06T03:35:15.377Z,29.77
2019-04-06T03:37:44.706Z,30.82
2019-04-06T03:40:14.131Z,29.70
2019-04-06T03:42:43.521Z,30.30
2019-04-06T03:45:12.803Z,29.92
2019-04-06T03:47:42.078Z,30.57
2019-04-06T03:50:11.295Z,28.83
2019-04-06T03:52:40.506Z,29.27
2019-04-06T03:55:09.757Z,28.57
2019-04-06T03:57:38.995Z,29.98
2019-04-06T04:00:08.305Z,30.82
2019-04-06T04:02:37.763Z,28.77
2019-04-06T04:05:07.363Z,29.45
2019-04-06T04:07:36.760Z,28.90
2019-04-06T04:10:09.390Z,28.60
2019-04-06T04:12:38.602Z,30.60
2019-04-06T04:15:08.105Z,29.27
2019-04-06T04:17:37.435Z,29.45
2019-04-06T04:20:07.690Z,29.35
2019-04-06T04:22:36.913Z,28.83
2019-04-06T04:25:06.732Z,28.30
2019-04-06T04:27:36.022Z,30.08
2019-04-06T04:30:07.765Z,30.77
2019-04-06T04:32:37.022Z,29.00
2019-04-06T04:35:06.642Z,30.85
2019-04-06T04:37:35.831Z,29.27
2019-04-06T04:40:05.209Z,28.85
2019-04-06T04:42:34.415Z,29.12
2019-04-06T04:45:03.748Z,30.10
2019-04-06T04:47:32.993Z,29.00
2019-04-06T04:50:02.156Z,30.02
2019-04-06T04:52:31.379Z,29.00
2019-04-06T04:55:00.567Z,30.48
2019-04-06T04:57:39.625Z,30.35
2019-04-06T05:00:00.738Z,30.52
2019-04-06T05:02:30.002Z,31.95
2019-04-06T05:04:59.261Z,31.37
2019-04-06T05:07:28.460Z,32.23
2019-04-06T05:09:57.696Z,29.37
2019-04-06T05:12:26.929Z,30.90
2019-04-06T05:15:01.401Z,30.62
2019-04-06T05:17:30.877Z,30.23
2019-04-06T05:20:00.173Z,33.55
2019-04-06T05:22:29.331Z,30.80
2019-04-06T05:24:58.782Z,31.30
2019-04-06T05:27:28.087Z,31.60
2019-04-06T05:29:57.314Z,32.30
2019-04-06T05:32:26.525Z,30.68
2019-04-06T05:34:57.999Z,30.90
2019-04-06T05:37:26.637Z,32.45
2019-04-06T05:39:55.868Z,33.00
2019-04-06T05:42:25.199Z,31.82
2019-04-06T05:44:54.570Z,32.78
2019-04-06T05:47:23.927Z,30.52
2019-04-06T05:49:53.169Z,31.97
2019-04-06T05:52:22.626Z,31.20
2019-04-06T05:54:51.904Z,32.67
2019-04-06T05:57:21.096Z,33.45
2019-04-06T05:59:50.335Z,31.52
2019-04-06T06:02:19.564Z,31.40
2019-04-06T06:04:48.821Z,31.70
2019-04-06T06:07:18.095Z,33.73
2019-04-06T06:09:47.739Z,34.15
2019-04-06T06:12:17.014Z,31.80
2019-04-06T06:14:46.271Z,30.97
2019-04-06T06:17:15.495Z,32.60
2019-04-06T06:19:44.693Z,33.80
2019-04-06T06:22:14.171Z,31.27
2019-04-06T06:24:43.400Z,34.05
2019-04-06T06:27:12.582Z,33.30
2019-04-06T06:29:41.873Z,33.05
2019-04-06T06:32:11.073Z,31.87
2019-04-06T06:34:40.391Z,35.70
2019-04-06T06:37:09.709Z,34.92
2019-04-06T06:39:38.915Z,31.62
2019-04-06T06:42:08.340Z,36.25
2019-04-06T06:44:37.736Z,35.03
2019-04-06T06:47:06.949Z,34.75
2019-04-06T06:49:36.687Z,33.30
2019-04-06T06:52:06.464Z,34.37
2019-04-06T06:54:36.022Z,34.25
2019-04-06T06:57:05.499Z,38.17
2019-04-06T06:59:34.985Z,34.80
2019-04-06T07:02:04.853Z,36.68
2019-04-06T07:04:34.757Z,37.38
2019-04-06T07:07:04.070Z,36.45
2019-04-06T07:09:33.320Z,36.30
2019-04-06T07:12:02.656Z,35.70
2019-04-06T07:14:31.980Z,37.60
2019-04-06T07:17:02.244Z,38.13
2019-04-06T07:19:31.473Z,36.77
2019-04-06T07:22:00.913Z,34.20
2019-04-06T07:24:30.445Z,37.80
2019-04-06T07:26:59.963Z,35.95
2019-04-06T07:29:29.185Z,36.42
2019-04-06T07:31:58.558Z,36.08
2019-04-06T07:34:27.881Z,36.63
2019-04-06T07:36:57.155Z,37.23
2019-04-06T07:39:26.356Z,35.68
2019-04-06T07:41:55.600Z,36.48
2019-04-06T07:44:24.877Z,35.85
2019-04-06T07:46:54.127Z,35.08
2019-04-06T07:49:23.411Z,36.58
2019-04-06T07:51:52.644Z,34.70
2019-04-06T07:54:21.846Z,35.58
2019-04-06T07:56:51.175Z,35.92
2019-04-06T07:59:20.324Z,37.73
2019-04-06T08:01:49.792Z,38.78
2019-04-06T08:04:19.300Z,36.45
2019-04-06T08:06:48.473Z,37.30
2019-04-06T08:09:17.711Z,35.83
2019-04-06T08:11:46.918Z,37.13
2019-04-06T08:14:16.141Z,36.03
2019-04-06T08:16:45.405Z,36.03
2019-04-06T08:19:14.658Z,36.93
2019-04-06T08:21:43.828Z,37.23
2019-04-06T08:24:13.127Z,37.50
2019-04-06T08:26:42.421Z,36.23
2019-04-06T08:29:11.636Z,38.63
2019-04-06T08:31:40.862Z,37.15
2019-04-06T08:34:10.026Z,38.75
2019-04-06T08:36:39.235Z,39.50
2019-04-06T08:39:09.295Z,36.95
2019-04-06T08:41:38.752Z,40.10
2019-04-06T08:44:08.009Z,38.63
2019-04-06T08:46:37.271Z,39.55
2019-04-06T08:49:06.531Z,36.98
2019-04-06T08:51:35.739Z,39.27
2019-04-06T08:54:04.940Z,38.75
2019-04-06T08:56:34.261Z,39.15
2019-04-06T08:59:11.551Z,38.80
2019-04-06T09:01:34.452Z,39.42
2019-04-06T09:04:03.669Z,36.65
2019-04-06T09:06:32.895Z,34.85
2019-04-06T09:09:02.159Z,35.92
2019-04-06T09:11:31.379Z,35.50
2019-04-06T09:14:00.616Z,35.08
2019-04-06T09:16:29.830Z,35.75
2019-04-06T09:18:59.196Z,34.15
2019-04-06T09:21:28.708Z,35.27
2019-04-06T09:23:58.722Z,33.23
2019-04-06T09:28:59.465Z,32.88
2019-04-06T09:31:28.119Z,31.42
2019-04-06T09:33:57.407Z,32.90
2019-04-06T09:36:26.874Z,30.48
2019-04-06T09:38:56.328Z,31.87
2019-04-06T09:41:26.334Z,31.50
2019-04-06T09:43:55.971Z,30.43
2019-04-06T09:46:35.898Z,31.02
2019-04-06T09:49:09.488Z,29.48
2019-04-06T09:51:43.020Z,30.23
2019-04-06T09:54:20.031Z,31.82
2019-04-06T09:56:56.658Z,31.82
2019-04-06T09:59:39.511Z,33.23
2019-04-06T10:02:10.532Z,32.38
2019-04-06T10:04:57.477Z,30.32
2019-04-06T10:07:40.078Z,32.23
2019-04-06T10:10:11.003Z,33.25
2019-04-06T10:12:47.690Z,31.57
2019-04-06T10:15:36.646Z,31.00
2019-04-06T10:18:07.477Z,29.63
2019-04-06T10:20:44.045Z,30.23
2019-04-06T10:23:32.993Z,28.70
2019-04-06T10:26:09.252Z,31.52
2019-04-06T10:28:43.050Z,29.35
2019-04-06T10:31:19.406Z,28.17
2019-04-06T10:33:56.368Z,29.10
2019-04-06T10:36:27.321Z,28.67
2019-04-06T10:39:00.635Z,27.35
2019-04-06T10:41:31.697Z,25.62
2019-04-06T10:44:02.867Z,26.75
2019-04-06T10:46:33.778Z,27.95
2019-04-06T10:49:07.977Z,25.25
2019-04-06T10:51:44.896Z,26.23
2019-04-06T10:54:18.715Z,19.90
2019-04-06T10:56:49.613Z,16.07
2019-04-06T10:59:20.537Z,16.70
2019-04-06T11:02:03.569Z,17.07
2019-04-06T11:04:40.109Z,17.27
2019-04-06T11:07:26.821Z,17.50
2019-04-06T11:10:15.596Z,16.97
2019-04-06T11:12:49.283Z,17.32
2019-04-06T11:15:32.233Z,18.02
2019-04-06T11:18:18.700Z,17.67
2019-04-06T11:21:04.689Z,17.07
2019-04-06T11:23:51.557Z,16.45
2019-04-06T11:26:23.016Z,16.90
2019-04-06T11:29:09.819Z,18.15
2019-04-06T11:31:43.059Z,17.70
2019-04-06T11:34:25.655Z,16.12
2019-04-06T11:36:59.178Z,15.60
2019-04-06T11:39:38.835Z,17.65
2019-04-06T11:42:09.709Z,16.63
2019-04-06T11:44:46.294Z,17.67
2019-04-06T11:47:33.346Z,17.82
2019-04-06T11:50:12.814Z,16.77
2019-04-06T11:52:46.452Z,16.97
2019-04-06T11:55:17.265Z,18.02
2019-04-06T11:57:54.062Z,18.95
2019-04-06T12:00:28.157Z,18.67
2019-04-06T12:02:59.331Z,18.57
2019-04-06T12:05:35.812Z,18.07
2019-04-06T12:08:06.963Z,19.65
2019-04-06T12:10:40.235Z,19.15
2019-04-06T12:13:13.831Z,18.42
2019-04-06T12:15:47.373Z,18.55
2019-04-06T12:18:20.958Z,18.02
2019-04-06T12:20:54.321Z,17.82
2019-04-06T12:23:33.870Z,18.42
2019-04-06T12:26:19.768Z,16.00
2019-04-06T12:28:53.254Z,15.90
2019-04-06T12:31:24.086Z,16.52
2019-04-06T12:33:58.010Z,16.27
2019-04-06T12:36:34.554Z,16.67
2019-04-06T12:39:16.223Z,15.83
2019-04-06T12:42:02.986Z,16.20
2019-04-06T12:44:33.825Z,19.07
2019-04-06T12:47:04.666Z,15.68
2019-04-06T12:49:44.822Z,17.35
2019-04-06T12:52:27.462Z,15.85
2019-04-06T12:54:58.624Z,16.82
2019-04-06T12:57:35.295Z,15.90
2019-04-06T13:00:20.268Z,16.20
2019-04-06T13:02:54.373Z,17.15
2019-04-06T13:05:41.220Z,18.35
2019-04-06T13:08:17.762Z,17.17
2019-04-06T13:10:55.949Z,17.02
2019-04-06T13:13:27.130Z,18.27
2019-04-06T13:15:58.317Z,16.95
2019-04-06T13:18:34.599Z,17.52
2019-04-06T13:21:05.581Z,17.57
2019-04-06T13:23:41.973Z,19.20
2019-04-06T13:26:15.469Z,19.32
2019-04-06T13:28:49.349Z,18.48
2019-04-06T13:31:20.159Z,19.67
2019-04-06T13:33:51.125Z,19.27
2019-04-06T13:36:22.067Z,20.88
2019-04-06T13:38:53.293Z,19.98
2019-04-06T13:41:40.210Z,19.62
2019-04-06T13:44:13.844Z,18.70
2019-04-06T13:46:59.929Z,21.93
2019-04-06T13:49:36.832Z,20.50
2019-04-06T13:52:23.924Z,20.62
2019-04-06T13:55:10.998Z,21.70
2019-04-06T13:57:45.098Z,22.82
2019-04-06T14:00:16.195Z,22.52
2019-04-06T14:02:47.167Z,21.97
2019-04-06T14:05:34.319Z,21.65
2019-04-06T14:08:21.798Z,22.02
2019-04-06T14:11:08.689Z,22.35
2019-04-06T14:13:48.113Z,23.98
2019-04-06T14:16:31.012Z,22.47
2019-04-06T14:19:10.502Z,23.10
2019-04-06T14:21:56.473Z,23.83
2019-04-06T14:24:33.359Z,22.37
2019-04-06T14:27:07.518Z,22.42
2019-04-06T14:29:38.364Z,22.07
2019-04-06T14:32:27.233Z,22.37
2019-04-06T14:35:14.198Z,22.58
2019-04-06T14:37:51.087Z,22.77
2019-04-06T14:40:24.847Z,23.40
2019-04-06T14:43:11.824Z,22.30
2019-04-06T14:46:01.022Z,22.10
2019-04-06T14:48:48.014Z,23.62
2019-04-06T14:51:24.872Z,23.45
2019-04-06T14:53:58.860Z,24.57
2019-04-06T14:56:29.942Z,23.45
2019-04-06T14:59:00.805Z,23.83
2019-04-06T15:01:45.312Z,25.75
2019-04-06T15:04:16.623Z,24.37
2019-04-06T15:06:47.671Z,25.75
2019-04-06T15:09:30.443Z,25.15
2019-04-06T15:12:01.296Z,24.67
2019-04-06T15:14:34.918Z,23.75
2019-04-06T15:17:18.008Z,25.17
2019-04-06T15:19:49.175Z,25.02
2019-04-06T15:22:22.654Z,24.32
2019-04-06T15:25:11.317Z,25.95
2019-04-06T15:27:58.391Z,23.80
2019-04-06T15:30:44.655Z,24.27
2019-04-06T15:33:15.566Z,23.27
2019-04-06T15:35:46.509Z,24.37
2019-04-06T15:38:20.286Z,24.37
2019-04-06T15:40:57.262Z,23.45
2019-04-06T15:43:32.818Z,24.40
2019-04-06T15:46:15.433Z,24.15
2019-04-06T15:48:52.228Z,25.00
2019-04-06T15:51:35.375Z,24.55
2019-04-06T15:54:22.220Z,24.95
2019-04-06T15:56:53.861Z,24.05
2019-04-06T15:59:27.676Z,25.02
2019-04-06T16:02:07.265Z,23.55
2019-04-06T16:04:38.104Z,23.95
2019-04-06T16:07:31.459Z,24.07
2019-04-06T16:10:11.431Z,23.85
2019-04-06T16:12:47.907Z,24.02
2019-04-06T16:15:21.763Z,24.98
2019-04-06T16:17:55.316Z,24.95
2019-04-06T16:20:41.125Z,24.52
2019-04-06T16:23:20.673Z,24.65
2019-04-06T16:25:54.274Z,24.13
2019-04-06T16:28:25.309Z,25.05
2019-04-06T16:31:08.090Z,23.62
2019-04-06T16:33:41.741Z,24.95
2019-04-06T16:36:15.435Z,24.47
2019-04-06T16:38:52.460Z,24.60
2019-04-06T16:41:32.455Z,25.75
2019-04-06T16:44:03.436Z,25.05
2019-04-06T16:46:34.262Z,25.00
2019-04-06T16:49:21.267Z,25.43
2019-04-06T16:52:08.744Z,25.00
2019-04-06T16:54:40.064Z,25.97
2019-04-06T16:57:13.371Z,25.80
2019-04-06T17:00:00.356Z,25.52
2019-04-06T17:02:31.691Z,26.05
2019-04-06T17:05:02.510Z,25.23
2019-04-06T17:07:39.063Z,24.92
2019-04-06T17:10:15.922Z,25.00
2019-04-06T17:12:46.812Z,24.50
2019-04-06T17:15:17.768Z,25.12
2019-04-06T17:17:51.291Z,26.30
2019-04-06T17:20:30.784Z,25.70
2019-04-06T17:23:14.252Z,25.15
2019-04-06T17:25:45.082Z,26.00
2019-04-06T17:28:18.700Z,28.73
2019-04-06T17:31:05.092Z,28.83
2019-04-06T17:33:47.489Z,29.35
2019-04-06T17:36:21.303Z,29.77
2019-04-06T17:38:52.247Z,31.33
2019-04-06T17:41:26.043Z,30.43
2019-04-06T17:44:02.776Z,31.05
2019-04-06T17:46:49.361Z,31.17
2019-04-06T17:49:32.587Z,31.37
2019-04-06T17:52:06.325Z,32.40
2019-04-06T17:54:40.122Z,33.95
2019-04-06T17:57:25.497Z,32.93
2019-04-06T18:00:12.425Z,33.63
2019-04-06T18:02:50.920Z,31.62
2019-04-06T18:05:21.896Z,31.55
2019-04-06T18:08:04.922Z,32.13
2019-04-06T18:10:48.066Z,32.33
2019-04-06T18:13:28.517Z,32.40
2019-04-06T18:15:57.883Z,33.30
2019-04-06T18:18:27.012Z,32.78
2019-04-06T18:20:57.230Z,32.40
2019-04-06T18:23:26.411Z,33.02
2019-04-06T18:25:55.651Z,35.80
2019-04-06T18:28:25.301Z,35.05
2019-04-06T18:30:59.296Z,36.30
2019-04-06T18:33:30.028Z,36.13
2019-04-06T18:35:59.533Z,36.65
2019-04-06T18:38:33.227Z,38.58
2019-04-06T18:41:02.396Z,37.93
2019-04-06T18:43:31.694Z,38.90
2019-04-06T18:46:01.223Z,37.20
2019-04-06T18:48:30.546Z,38.78
2019-04-06T18:50:59.802Z,38.95
2019-04-06T18:53:29.007Z,37.40
2019-04-06T18:55:58.503Z,38.23
2019-04-06T18:58:27.828Z,41.20
2019-04-06T19:00:58.850Z,39.80
2019-04-06T19:03:28.153Z,40.65
2019-04-06T19:05:57.961Z,40.98
2019-04-06T19:08:27.342Z,41.48
2019-04-06T19:10:56.771Z,39.10
2019-04-06T19:13:26.093Z,41.18
2019-04-06T19:15:55.825Z,41.83
2019-04-06T19:18:25.086Z,41.73
2019-04-06T19:20:54.941Z,42.30
2019-04-06T19:23:24.464Z,41.63
2019-04-06T19:25:53.835Z,42.05
2019-04-06T19:28:23.192Z,43.75
2019-04-06T19:30:52.489Z,44.67
2019-04-06T19:33:24.983Z,42.27
2019-04-06T19:35:58.796Z,42.08
2019-04-06T19:38:28.245Z,41.77
2019-04-06T19:40:57.648Z,41.58
2019-04-06T19:43:28.750Z,43.15
2019-04-06T19:45:58.113Z,43.58
2019-04-06T19:48:27.302Z,42.83
2019-04-06T19:51:00.087Z,44.15
2019-04-06T19:53:31.770Z,42.43
2019-04-06T19:56:02.127Z,45.10
2019-04-06T19:58:31.409Z,44.45
2019-04-06T20:01:04.308Z,45.05
2019-04-06T20:03:37.131Z,43.95
2019-04-06T20:06:04.968Z,43.48
2019-04-06T20:08:35.009Z,42.33
2019-04-06T20:11:07.084Z,45.98
2019-04-06T20:13:36.606Z,45.98
2019-04-06T20:16:08.713Z,47.00
2019-04-06T20:18:40.060Z,42.53
2019-04-06T20:21:09.777Z,44.38
2019-04-06T20:23:39.122Z,44.55
2019-04-06T20:26:12.793Z,44.60
2019-04-06T20:28:44.750Z,43.70
2019-04-06T20:31:14.176Z,46.08
2019-04-06T20:33:51.492Z,46.75
2019-04-06T20:36:17.586Z,45.20
2019-04-06T20:38:48.580Z,45.52
2019-04-06T20:41:17.971Z,46.18
2019-04-06T20:43:47.534Z,48.02
2019-04-06T20:46:19.676Z,45.95
2019-04-06T20:48:48.104Z,45.67
2019-04-06T20:51:17.991Z,46.00
2019-04-06T20:53:47.414Z,49.45
2019-04-06T20:56:17.173Z,45.05
2019-04-06T20:58:46.561Z,46.83
2019-04-06T21:01:15.953Z,45.52
2019-04-06T21:03:45.401Z,48.15
2019-04-06T21:06:14.683Z,46.08
2019-04-06T21:08:44.067Z,46.83
2019-04-06T21:11:13.286Z,46.33
2019-04-06T21:13:42.649Z,47.30
2019-04-06T21:16:12.420Z,46.40
2019-04-06T21:18:41.888Z,46.08
2019-04-06T21:21:11.178Z,46.80
2019-04-06T21:23:40.400Z,47.25
2019-04-06T21:26:09.641Z,48.42
2019-04-06T21:28:39.016Z,47.40
2019-04-06T21:31:08.710Z,48.92
2019-04-06T21:33:38.536Z,47.58
2019-04-06T21:36:08.386Z,48.78
2019-04-06T21:38:37.724Z,47.43
2019-04-06T21:41:07.036Z,49.35
2019-04-06T21:43:36.222Z,49.03
2019-04-06T21:46:05.610Z,48.15
2019-04-06T21:48:35.219Z,48.17
2019-04-06T21:51:04.523Z,47.27
2019-04-06T21:53:34.570Z,48.85
2019-04-06T21:56:07.391Z,47.48
2019-04-06T21:58:34.882Z,49.08
2019-04-06T22:01:04.113Z,48.58
2019-04-06T22:03:33.784Z,48.28
2019-04-06T22:06:03.612Z,48.00
2019-04-06T22:08:32.872Z,48.52
2019-04-06T22:11:02.620Z,47.05
2019-04-06T22:13:31.968Z,49.23
2019-04-06T22:16:01.169Z,48.42
2019-04-06T22:18:30.572Z,48.40
2019-04-06T22:20:59.742Z,49.42
2019-04-06T22:23:39.777Z,47.10
2019-04-06T22:26:00.455Z,50.88
2019-04-06T22:28:29.979Z,49.07
2019-04-06T22:30:59.168Z,48.50
2019-04-06T22:33:28.635Z,49.53
2019-04-06T22:35:58.488Z,49.13
2019-04-06T22:38:28.173Z,50.25
2019-04-06T22:40:57.834Z,48.67
2019-04-06T22:43:27.107Z,50.63
2019-04-06T22:45:56.438Z,50.52
2019-04-06T22:48:25.699Z,52.38
2019-04-06T22:50:55.144Z,50.17
2019-04-06T22:53:24.829Z,50.20
2019-04-06T22:55:54.075Z,49.97
2019-04-06T22:58:23.261Z,50.58
2019-04-06T23:01:00.076Z,51.18
2019-04-06T23:03:30.904Z,50.92
2019-04-06T23:06:14.204Z,50.43
2019-04-06T23:08:43.833Z,50.12
2019-04-06T23:11:13.166Z,51.27
2019-04-06T23:13:42.505Z,51.33
2019-04-06T23:16:11.709Z,52.67
2019-04-06T23:18:41.299Z,53.75
2019-04-06T23:21:10.893Z,53.80
2019-04-06T23:23:40.717Z,50.30
2019-04-06T23:26:10.106Z,51.68
2019-04-06T23:28:39.349Z,51.58
2019-04-06T23:31:08.615Z,50.67
2019-04-06T23:33:38.072Z,52.13
2019-04-06T23:36:07.812Z,52.90
2019-04-06T23:38:37.806Z,52.93
2019-04-06T23:41:07.145Z,50.73
2019-04-06T23:43:36.958Z,52.75
2019-04-06T23:46:06.402Z,52.33
2019-04-06T23:48:36.368Z,52.08
2019-04-06T23:51:06.294Z,52.35
2019-04-06T23:53:35.984Z,55.33
2019-04-06T23:56:05.334Z,53.50
2019-04-06T23:58:35.218Z,51.73
